Time;durP1;ratioP1;P1;durP2;ratioP2;P2;SDS_P1;SDS_P2;PMS_P1;PMS_P2;Temp;Humidity;BMP_temperature;BMP_pressure;BME280_temperature;BME280_humidity;BME280_pressure;Samples;Min_cycle;Max_cycle;Signal;HPM_P1;HPM_P2
2022/05/01 00:00:36;;;;;;;12.97;11.77;;;;;;;9.52;100.00;96705.19;5071233;27;102464;-64
2022/05/01 00:03:03;;;;;;;13.20;12.00;;;;;;;9.53;100.00;96709.44;5071733;27;102034;-64
2022/05/01 00:05:31;;;;;;;14.87;13.47;;;;;;;9.59;100.00;96708.53;5071448;27;102531;-64
2022/05/01 00:08:00;;;;;;;14.27;12.90;;;;;;;9.67;100.00;96708.13;5052647;27;105660;-64
2022/05/01 00:10:27;;;;;;;13.27;12.00;;;;;;;9.64;100.00;96700.63;5052963;27;101882;-64
2022/05/01 00:12:56;;;;;;;11.40;10.40;;;;;;;9.58;100.00;96698.91;5071435;27;101787;-64
2022/05/01 00:15:23;;;;;;;10.60;9.70;;;;;;;9.42;100.00;96692.50;5070733;27;103162;-64
2022/05/01 00:17:50;;;;;;;9.90;9.00;;;;;;;9.49;100.00;96695.03;5074561;27;101690;-64
2022/05/01 00:20:17;;;;;;;8.67;7.87;;;;;;;9.52;100.00;96692.72;5070267;27;102615;-64
2022/05/01 00:22:43;;;;;;;7.90;7.20;;;;;;;9.46;100.00;96698.16;5072089;27;101803;-64
2022/05/01 00:25:13;;;;;;;8.40;7.70;;;;;;;9.45;100.00;96689.41;5072238;27;102981;-64
2022/05/01 00:27:40;;;;;;;8.10;7.40;;;;;;;9.51;100.00;96692.94;5070207;27;105323;-64
2022/05/01 00:30:08;;;;;;;8.33;7.53;;;;;;;9.54;100.00;96692.50;5070875;27;102295;-64
2022/05/01 00:38:00;;;;;;;14.57;13.23;;;;;;;9.49;100.00;96693.19;5074801;27;101660;-64
2022/05/01 00:40:28;;;;;;;14.83;13.53;;;;;;;9.48;100.00;96690.78;5052165;27;103826;-64
2022/05/01 00:42:55;;;;;;;14.30;12.90;;;;;;;9.49;100.00;96689.72;5052344;27;101883;-64
2022/05/01 00:45:22;;;;;;;15.27;13.77;;;;;;;9.62;100.00;96692.91;5069812;27;104824;-64
2022/05/01 00:47:49;;;;;;;14.90;13.50;;;;;;;9.63;100.00;96688.41;5051850;27;104412;-64
2022/05/01 00:50:17;;;;;;;15.30;13.90;;;;;;;9.67;100.00;96689.53;5052224;27;101932;-64
2022/05/01 00:52:45;;;;;;;13.87;12.57;;;;;;;9.67;100.00;96686.88;5052281;27;104824;-64
2022/05/01 00:55:12;;;;;;;13.10;11.90;;;;;;;9.63;100.00;96685.75;5068823;27;105079;-64
2022/05/01 00:57:41;;;;;;;12.93;11.83;;;;;;;9.55;100.00;96680.81;5052072;27;102029;-64
2022/05/01 01:00:09;;;;;;;12.37;11.27;;;;;;;9.62;100.00;96684.13;5073909;27;102856;-64
2022/05/01 01:02:37;;;;;;;10.43;9.43;;;;;;;9.64;100.00;96676.72;5069229;27;101856;-64
2022/05/01 01:05:05;;;;;;;9.93;9.03;;;;;;;9.59;100.00;96682.75;5053282;27;104131;-64
2022/05/01 01:07:33;;;;;;;9.70;8.90;;;;;;;9.58;100.00;96675.03;5052606;27;105025;-64
2022/05/01 01:10:00;;;;;;;9.53;8.63;;;;;;;9.51;100.00;96674.38;5053222;27;101850;-64
2022/05/01 01:15:14;;;;;;;8.40;7.67;;;;;;;9.52;100.00;96678.63;5052388;27;105447;-64
2022/05/01 01:17:42;;;;;;;8.73;7.93;;;;;;;9.48;100.00;96675.66;5071712;27;101822;-64
2022/05/01 01:20:12;;;;;;;9.77;8.87;;;;;;;9.44;100.00;96674.50;5052306;27;106932;-65
2022/05/01 01:22:41;;;;;;;8.93;8.13;;;;;;;9.41;100.00;96676.81;5074174;27;102527;-64
2022/05/01 01:25:11;;;;;;;8.50;7.80;;;;;;;9.40;100.00;96675.22;5052575;27;105156;-64
2022/05/01 01:27:38;;;;;;;7.87;7.27;;;;;;;9.47;100.00;96679.34;5052432;27;105192;-64
2022/05/01 01:32:51;;;;;;;6.87;6.37;;;;;;;9.46;100.00;96671.63;5051905;27;103650;-64
2022/05/01 01:35:21;;;;;;;6.43;5.83;;;;;;;9.26;100.00;96672.03;5070518;27;102619;-64
2022/05/01 01:37:52;;;;;;;6.40;5.83;;;;;;;9.14;100.00;96670.44;5071071;27;101656;-64
2022/05/01 01:40:23;;;;;;;6.67;6.07;;;;;;;9.18;100.00;96675.06;5070982;27;103999;-64
2022/05/01 01:42:51;;;;;;;6.60;6.00;;;;;;;9.17;100.00;96668.09;5070638;27;101658;-64
2022/05/01 01:45:19;;;;;;;6.67;6.17;;;;;;;9.16;100.00;96671.81;5074206;27;101802;-64
2022/05/01 01:47:49;;;;;;;6.40;5.90;;;;;;;9.07;100.00;96667.94;5070383;27;102540;-64
2022/05/01 01:50:17;;;;;;;6.83;6.30;;;;;;;8.92;100.00;96667.59;5069707;27;101749;-64
2022/05/01 01:52:46;;;;;;;6.03;5.53;;;;;;;8.96;100.00;96668.75;5052568;27;103554;-64
2022/05/01 01:55:16;;;;;;;6.67;6.13;;;;;;;9.00;100.00;96666.44;5069952;27;102569;-64
2022/05/01 01:57:45;;;;;;;6.87;6.27;;;;;;;9.00;100.00;96666.44;5052242;27;101958;-64
2022/05/01 02:00:14;;;;;;;7.60;7.00;;;;;;;9.00;100.00;96667.22;5070809;27;102572;-64
2022/05/01 02:02:41;;;;;;;8.13;7.43;;;;;;;8.96;100.00;96663.44;5070124;27;102756;-64
2022/05/01 02:05:09;;;;;;;8.03;7.23;;;;;;;8.88;100.00;96658.50;5070625;27;101839;-64
2022/05/01 02:07:36;;;;;;;8.20;7.50;;;;;;;8.90;100.00;96660.91;5073735;27;102843;-64
2022/05/01 02:10:05;;;;;;;7.23;6.63;;;;;;;8.92;100.00;96664.94;5070666;27;102102;-64
2022/05/01 02:12:34;;;;;;;7.43;6.83;;;;;;;9.00;100.00;96661.13;5070844;27;102370;-64
2022/05/01 02:15:01;;;;;;;7.73;7.03;;;;;;;9.06;100.00;96662.84;5051796;27;103877;-64
2022/05/01 02:17:28;;;;;;;8.37;7.67;;;;;;;9.12;100.00;96660.06;5068818;27;101916;-64
2022/05/01 02:19:55;;;;;;;8.43;7.63;;;;;;;9.15;100.00;96656.94;5070161;27;102864;-64
2022/05/01 02:22:22;;;;;;;8.30;7.60;;;;;;;9.15;100.00;96654.28;5051658;27;105043;-64
2022/05/01 02:24:50;;;;;;;8.57;7.77;;;;;;;9.15;100.00;96650.81;5052180;27;101983;-64
2022/05/01 02:27:17;;;;;;;9.17;8.37;;;;;;;9.19;100.00;96659.91;5052150;27;104560;-64
2022/05/01 02:29:46;;;;;;;10.17;9.27;;;;;;;9.21;100.00;96652.56;5073035;27;101806;-64
2022/05/01 02:32:13;;;;;;;10.37;9.47;;;;;;;9.23;100.00;96650.47;5070087;27;102589;-64
2022/05/01 02:34:41;;;;;;;11.77;10.57;;;;;;;9.19;100.00;96644.81;5069909;27;103197;-64
2022/05/01 02:37:08;;;;;;;12.13;10.83;;;;;;;9.23;100.00;96650.47;5050978;27;102013;-64
2022/05/01 02:39:35;;;;;;;10.77;9.77;;;;;;;9.17;100.00;96644.22;5069327;27;102252;-64
2022/05/01 02:42:02;;;;;;;12.07;10.97;;;;;;;9.17;100.00;96640.78;5069528;27;102523;-64
2022/05/01 02:44:30;;;;;;;12.97;11.67;;;;;;;9.07;100.00;96648.53;5071558;27;101779;-64
2022/05/01 02:46:58;;;;;;;11.90;10.80;;;;;;;9.10;100.00;96643.56;5054468;27;104337;-64
2022/05/01 02:49:25;;;;;;;12.50;11.40;;;;;;;9.09;100.00;96643.78;5075735;27;103200;-64
2022/05/01 02:51:53;;;;;;;12.07;10.97;;;;;;;9.10;100.00;96643.56;5072622;27;102434;-64
2022/05/01 02:54:21;;;;;;;12.60;11.40;;;;;;;9.09;100.00;96641.13;5072192;27;103176;-64
2022/05/01 02:56:49;;;;;;;11.17;10.07;;;;;;;9.02;100.00;96643.94;5054245;27;101877;-64
2022/05/01 02:59:16;;;;;;;9.83;8.93;;;;;;;8.99;100.00;96647.06;5054118;27;103740;-64
2022/05/01 03:01:44;;;;;;;10.07;9.10;;;;;;;9.01;100.00;96646.81;5072969;27;103203;-64
2022/05/01 03:04:13;;;;;;;10.10;9.20;;;;;;;9.03;100.00;96642.91;5055143;27;101945;-64
2022/05/01 03:06:40;;;;;;;9.73;8.77;;;;;;;9.07;100.00;96640.59;5073584;27;102392;-64
2022/05/01 03:09:08;;;;;;;9.87;9.00;;;;;;;9.11;100.00;96637.22;5071147;27;105862;-64
2022/05/01 03:11:35;;;;;;;11.40;8.27;;;;;;;9.13;100.00;96634.34;5075525;27;101851;-64
2022/05/01 03:14:02;;;;;;;9.43;8.53;;;;;;;9.12;100.00;96632.72;5071444;27;105419;-64
2022/05/01 03:16:30;;;;;;;8.83;7.97;;;;;;;9.08;100.00;96635.03;5054897;27;101838;-64
2022/05/01 03:24:27;;;;;;;8.00;7.30;;;;;;;8.92;100.00;96634.94;5054795;27;102073;-64
2022/05/01 03:26:54;;;;;;;7.40;6.67;;;;;;;8.82;100.00;96640.03;5054888;27;105178;-64
2022/05/01 03:29:21;;;;;;;7.37;6.67;;;;;;;8.91;100.00;96641.31;5072390;27;102636;-64
2022/05/01 03:31:50;;;;;;;6.20;5.70;;;;;;;8.83;100.00;96634.50;5073425;27;102035;-64
2022/05/01 03:34:17;;;;;;;5.30;4.90;;;;;;;8.90;100.00;96642.34;5075884;27;102546;-64
2022/05/01 03:36:45;;;;;;;4.60;4.30;;;;;;;8.93;100.00;96644.50;5054471;27;101836;-64
2022/05/01 03:39:13;;;;;;;4.47;4.07;;;;;;;8.81;100.00;96639.25;5072964;27;102871;-64
2022/05/01 03:41:39;;;;;;;3.83;3.53;;;;;;;8.75;100.00;96642.84;5054002;27;105164;-64
2022/05/01 03:44:07;;;;;;;3.60;3.40;;;;;;;8.78;100.00;96641.56;5072953;27;102231;-64
2022/05/01 03:46:36;;;;;;;3.30;3.10;;;;;;;8.61;100.00;96638.81;5072978;27;102382;-64
2022/05/01 03:49:03;;;;;;;3.30;3.10;;;;;;;8.65;100.00;96631.19;5071857;27;102793;-65
2022/05/01 03:51:31;;;;;;;3.40;3.20;;;;;;;8.62;100.00;96643.06;5072693;27;101796;-64
2022/05/01 03:54:02;;;;;;;3.30;3.10;;;;;;;8.62;100.00;96642.28;5072782;27;102342;-64
2022/05/01 03:56:29;;;;;;;3.33;3.13;;;;;;;8.59;100.00;96637.41;5056349;27;105513;-64
2022/05/01 03:58:57;;;;;;;3.70;3.40;;;;;;;8.58;100.00;96635.81;5070967;27;105162;-64
2022/05/01 04:01:24;;;;;;;3.63;3.43;;;;;;;8.52;100.00;96636.75;5053672;27;105617;-64
2022/05/01 04:03:51;;;;;;;3.37;3.17;;;;;;;8.46;100.00;96632.38;5054355;27;101893;-64
2022/05/01 04:06:18;;;;;;;3.50;3.30;;;;;;;8.49;100.00;96639.84;5054122;27;104878;-64
2022/05/01 04:08:45;;;;;;;3.97;3.67;;;;;;;8.54;100.00;96637.31;5053434;27;105033;-64
2022/05/01 04:11:14;;;;;;;4.13;3.67;;;;;;;8.56;100.00;96632.59;5072492;27;101870;-64
2022/05/01 04:13:41;;;;;;;3.90;3.60;;;;;;;8.67;100.00;96635.22;5072061;27;102559;-64
2022/05/01 04:16:08;;;;;;;3.80;3.50;;;;;;;8.69;100.00;96637.66;5071652;27;102939;-65
2022/05/01 04:18:35;;;;;;;4.40;4.10;;;;;;;8.71;100.00;96630.25;5075983;27;101684;-64
2022/05/01 04:21:02;;;;;;;3.77;3.47;;;;;;;8.64;100.00;96626.94;5071138;27;102708;-64
2022/05/01 04:23:29;;;;;;;4.27;3.97;;;;;;;8.66;100.00;96636.25;5071050;27;101813;-64
2022/05/01 04:25:56;;;;;;;4.90;4.33;;;;;;;8.70;100.00;96644.56;5072164;27;102282;-64
2022/05/01 04:28:24;;;;;;;4.80;4.37;;;;;;;8.74;100.00;96635.94;5070068;27;105080;-64
2022/05/01 04:30:51;;;;;;;4.30;4.00;;;;;;;8.73;100.00;96638.81;5053773;27;101892;-64
2022/05/01 04:33:19;;;;;;;3.70;3.50;;;;;;;8.74;100.00;96641.22;5072183;27;102388;-64
2022/05/01 04:35:48;;;;;;;4.00;3.70;;;;;;;8.82;100.00;96643.50;5071454;27;103465;-64
2022/05/01 04:38:18;;;;;;;4.07;3.77;;;;;;;8.81;100.00;96649.03;5074066;27;101973;-64
2022/05/01 04:40:46;;;;;;;3.70;3.27;;;;;;;8.79;100.00;96643.97;5071171;27;102770;-64
2022/05/01 04:43:17;;;;;;;3.13;2.93;;;;;;;8.73;100.00;96644.91;5070564;27;101944;-64
2022/05/01 04:45:47;;;;;;;3.77;3.47;;;;;;;8.81;100.00;96652.50;5070751;27;105243;-64
2022/05/01 04:48:17;;;;;;;3.00;2.80;;;;;;;8.68;100.00;96644.00;5069864;27;103864;-64
2022/05/01 04:50:45;;;;;;;3.23;3.03;;;;;;;8.71;100.00;96646.16;5053245;27;101873;-64
2022/05/01 04:53:13;;;;;;;3.10;2.90;;;;;;;8.76;100.00;96643.63;5053470;27;104030;-64
2022/05/01 04:55:42;;;;;;;3.30;3.10;;;;;;;8.72;100.00;96645.94;5052618;27;105512;-64
2022/05/01 04:58:10;;;;;;;3.20;3.00;;;;;;;8.67;100.00;96650.34;5053385;27;102087;-64
2022/05/01 05:00:38;;;;;;;3.00;2.80;;;;;;;8.71;100.00;96646.16;5074653;27;101668;-64
2022/05/01 05:03:06;;;;;;;3.17;2.90;;;;;;;8.75;100.00;96656.09;5071648;27;101689;-65
2022/05/01 05:05:34;;;;;;;2.90;2.60;;;;;;;8.77;100.00;96651.34;5071641;27;102798;-65
2022/05/01 05:09:53;;;;;;;3.40;3.10;;;;;;;8.80;100.00;96655.38;5070830;27;102691;-65
2022/05/01 05:10:49;;;;;;;2.90;2.70;;;;;;;8.60;100.00;96649.63;5069824;27;101906;-65
2022/05/01 05:13:20;;;;;;;3.20;3.00;;;;;;;8.60;100.00;96654.94;5071529;27;102368;-65
2022/05/01 05:15:47;;;;;;;3.00;2.80;;;;;;;8.59;100.00;96656.78;5071287;27;102486;-65
2022/05/01 05:18:16;;;;;;;3.43;3.23;;;;;;;8.64;100.00;96659.56;5069938;27;101975;-65
2022/05/01 05:20:43;;;;;;;3.30;3.10;;;;;;;8.67;100.00;96663.59;5052396;27;105131;-65
2022/05/01 05:23:10;;;;;;;3.33;3.13;;;;;;;8.68;100.00;96659.91;5055727;27;105016;-65
2022/05/01 05:25:37;;;;;;;3.27;3.07;;;;;;;8.68;100.00;96660.69;5052443;27;105543;-64
2022/05/01 05:28:07;;;;;;;3.00;2.70;;;;;;;8.58;100.00;96663.13;5052120;27;106103;-64
2022/05/01 05:30:35;;;;;;;2.87;2.67;;;;;;;8.58;100.00;96665.78;5071506;27;101747;-65
2022/05/01 05:33:04;;;;;;;2.83;2.63;;;;;;;8.57;100.00;96671.31;5052769;27;105212;-65
2022/05/01 05:35:32;;;;;;;3.00;2.80;;;;;;;8.59;100.00;96664.75;5070452;27;102529;-67
2022/05/01 05:37:59;;;;;;;2.60;2.40;;;;;;;8.64;100.00;96667.50;5052487;27;101799;-68
2022/05/01 05:40:26;;;;;;;2.57;2.47;;;;;;;8.67;100.00;96667.03;5052396;27;103605;-68
2022/05/01 05:42:53;;;;;;;2.50;2.40;;;;;;;8.64;100.00;96667.50;5052056;27;105062;-68
2022/05/01 05:45:20;;;;;;;2.43;2.33;;;;;;;8.73;100.00;96674.06;5056092;27;101968;-67
2022/05/01 05:47:47;;;;;;;3.97;3.00;;;;;;;8.86;100.00;96670.38;5051652;27;105439;-67
2022/05/01 05:50:14;;;;;;;2.80;2.70;;;;;;;8.80;100.00;96671.28;5069531;27;101845;-65
2022/05/01 05:52:43;;;;;;;3.10;2.90;;;;;;;8.81;100.00;96675.56;5071133;27;102393;-64
2022/05/01 05:55:11;;;;;;;3.03;2.83;;;;;;;8.83;100.00;96676.16;5051537;27;105478;-66
2022/05/01 05:57:37;;;;;;;2.90;2.70;;;;;;;8.70;100.00;96674.53;5052299;27;101975;-69
2022/05/01 06:00:05;;;;;;;2.97;2.77;;;;;;;8.79;100.00;96675.78;5052343;27;105191;-69
2022/05/01 06:02:39;;;;;;;3.00;2.80;;;;;;;8.83;100.00;96678.81;5066960;27;102412;-68
2022/05/01 06:05:08;;;;;;;3.20;3.00;;;;;;;8.99;100.00;96675.44;5052603;27;102338;-68
2022/05/01 06:07:35;;;;;;;3.20;3.00;;;;;;;9.03;100.00;96684.53;5055366;27;105969;-67
2022/05/01 06:10:04;;;;;;;3.30;3.10;;;;;;;9.00;100.00;96677.03;5071083;27;101819;-70
2022/05/01 06:12:31;;;;;;;3.80;2.80;;;;;;;9.12;100.00;96680.47;5052615;27;105417;-66
2022/05/01 06:15:06;;;;;;;4.90;4.50;;;;;;;9.22;100.00;96683.34;5052109;27;103771;-69
2022/05/01 06:17:33;;;;;;;4.13;3.83;;;;;;;9.21;100.00;96682.53;5052588;27;101895;-68
2022/05/01 06:20:00;;;;;;;3.33;3.13;;;;;;;9.21;100.00;96684.38;5054717;27;104813;-68
2022/05/01 06:22:27;;;;;;;2.90;2.70;;;;;;;9.16;100.00;96686.94;5072641;27;105341;-66
2022/05/01 06:24:54;;;;;;;3.00;2.80;;;;;;;9.36;100.00;96682.84;5074218;27;101763;-67
2022/05/01 06:27:23;;;;;;;3.23;2.93;;;;;;;9.59;100.00;96682.75;5056055;27;104922;-66
2022/05/01 06:29:50;;;;;;;3.47;3.13;;;;;;;9.56;100.00;96677.94;5059059;27;105482;-65
2022/05/01 06:32:24;;;;;;;3.67;3.37;;;;;;;9.52;100.00;96682.09;5056284;27;103988;-66
2022/05/01 06:34:53;;;;;;;3.47;3.27;;;;;;;9.50;100.00;96683.38;5072470;27;105346;-67
2022/05/01 06:37:20;;;;;;;3.70;3.40;;;;;;;9.64;100.00;96690.81;5055948;27;101894;-68
2022/05/01 06:39:47;;;;;;;4.00;3.70;;;;;;;9.66;100.00;96687.94;5074144;27;102858;-69
2022/05/01 06:42:32;;;;;;;3.40;3.20;;;;;;;9.75;100.00;96697.94;5055330;27;105449;-68
2022/05/01 06:45:16;;;;;;;3.40;3.10;;;;;;;9.79;100.00;96687.63;5072903;27;101849;-69
2022/05/01 06:47:43;;;;;;;3.70;3.40;;;;;;;9.82;100.00;96687.19;5055939;27;105315;-67
2022/05/01 06:50:56;;;;;;;4.90;4.40;;;;;;;9.81;100.00;96694.31;5058441;27;104004;-68
2022/05/01 06:53:23;;;;;;;4.43;4.13;;;;;;;9.69;100.00;96690.09;5055428;27;105372;-67
2022/05/01 06:55:53;;;;;;;4.13;3.67;;;;;;;9.71;100.00;96694.13;5054817;27;105763;-67
2022/05/01 06:58:22;;;;;;;4.43;3.97;;;;;;;9.63;100.00;96694.53;5055618;27;102756;-68
2022/05/01 07:01:30;;;;;;;4.17;3.80;;;;;;;9.52;100.00;96691.91;5073812;27;102786;-69
2022/05/01 07:03:58;;;;;;;4.10;3.70;;;;;;;9.58;100.00;96693.59;5073333;27;102903;-68
2022/05/01 07:06:25;;;;;;;4.37;4.07;;;;;;;9.68;100.00;96696.47;5073884;27;101817;-69
2022/05/01 07:08:53;;;;;;;4.00;3.70;;;;;;;9.64;100.00;96695.31;5055440;27;105646;-71
2022/05/01 07:12:10;;;;;;;4.13;3.83;;;;;;;9.47;100.00;96699.75;5054725;27;105485;-69
2022/05/01 07:14:55;;;;;;;4.50;4.10;;;;;;;9.38;100.00;96701.19;5058571;27;101805;-68
2022/05/01 07:17:22;;;;;;;6.33;5.73;;;;;;;9.48;100.00;96693.44;5054585;27;105826;-68
2022/05/01 07:19:50;;;;;;;6.17;5.23;;;;;;;9.53;100.00;96696.97;5054094;27;101912;-68
2022/05/01 07:22:22;;;;;;;5.23;4.73;;;;;;;9.48;100.00;96693.44;5073691;27;102962;-68
2022/05/01 07:24:50;;;;;;;5.00;4.60;;;;;;;9.38;100.00;96701.97;5072618;27;102541;-68
2022/05/01 07:27:17;;;;;;;4.67;4.30;;;;;;;9.31;100.00;96698.66;5054941;27;101966;-68
2022/05/01 07:29:45;;;;;;;5.00;4.60;;;;;;;9.35;100.00;96696.34;5072664;27;102864;-68
2022/05/01 07:32:25;;;;;;;4.67;4.33;;;;;;;9.47;100.00;96691.78;5072527;27;103202;-67
2022/05/01 07:34:53;;;;;;;5.50;5.00;;;;;;;9.57;100.00;96694.66;5054940;27;101892;-68
2022/05/01 07:37:24;;;;;;;5.40;5.00;;;;;;;9.35;100.00;96693.69;5057600;27;105820;-68
2022/05/01 07:39:54;;;;;;;4.97;4.57;;;;;;;9.33;100.00;96698.44;5054885;27;101917;-68
2022/05/01 07:42:24;;;;;;;6.90;6.30;;;;;;;9.53;100.00;96696.97;5073147;27;103761;-68
2022/05/01 07:45:00;;;;;;;5.70;5.20;;;;;;;9.77;100.00;96695.06;5054185;27;105773;-68
2022/05/01 07:47:29;;;;;;;7.50;6.80;;;;;;;9.81;100.00;96696.97;5073300;27;101769;-68
2022/05/01 07:49:56;;;;;;;6.00;5.40;;;;;;;10.09;100.00;96691.66;5071686;27;105363;-68
2022/05/01 07:52:25;;;;;;;7.37;6.33;;;;;;;10.15;100.00;96687.25;5072045;27;103133;-68
2022/05/01 07:54:55;;;;;;;6.27;5.77;;;;;;;10.25;100.00;96688.22;5054051;27;101969;-68
2022/05/01 07:57:26;;;;;;;6.60;6.00;;;;;;;10.42;100.00;96682.94;5054402;27;106934;-68
2022/05/01 07:59:54;;;;;;;7.57;6.87;;;;;;;10.59;100.00;96687.22;5057297;27;105598;-68
2022/05/01 08:02:21;;;;;;;8.07;7.27;;;;;;;10.64;100.00;96681.16;5054374;27;105794;-68
2022/05/01 08:04:49;;;;;;;8.17;7.37;;;;;;;10.77;100.00;96684.28;5053709;27;104381;-68
2022/05/01 08:07:17;;;;;;;7.73;7.03;;;;;;;10.84;100.00;96692.09;5054401;27;102346;-68
2022/05/01 08:09:44;;;;;;;9.40;8.37;;;;;;;10.97;100.00;96691.75;5054377;27;105139;-68
2022/05/01 08:12:23;;;;;;;10.47;9.03;;;;;;;10.88;100.00;96693.19;5053501;27;105883;-68
2022/05/01 08:14:52;;;;;;;9.77;8.77;;;;;;;10.78;100.00;96688.53;5054336;27;101952;-68
2022/05/01 08:17:19;;;;;;;11.13;10.13;;;;;;;10.68;100.00;96682.28;5071233;27;105192;-68
2022/05/01 08:22:34;;;;;;;10.70;9.57;;;;;;;10.80;100.00;96696.28;5075134;27;101981;-68
2022/05/01 08:25:01;;;;;;;10.27;9.27;;;;;;;10.79;100.00;96689.34;5053377;27;105504;-68
2022/05/01 08:27:28;;;;;;;11.53;10.33;;;;;;;10.43;100.00;96685.34;5054082;27;102053;-68
2022/05/01 08:29:55;;;;;;;11.50;10.40;;;;;;;10.37;100.00;96690.81;5071405;27;102725;-68
2022/05/01 08:32:23;;;;;;;12.03;10.80;;;;;;;10.19;100.00;96691.84;5070952;27;103026;-68
2022/05/01 08:34:52;;;;;;;12.23;11.03;;;;;;;10.07;100.00;96688.47;5052831;27;101971;-68
2022/05/01 08:37:19;;;;;;;12.97;11.67;;;;;;;10.06;100.00;96699.31;5071317;27;102489;-68
2022/05/01 08:39:48;;;;;;;15.03;12.77;;;;;;;9.98;100.00;96697.03;5052230;27;103786;-68
2022/05/01 08:42:18;;;;;;;11.60;10.47;;;;;;;10.06;100.00;96686.03;5052582;27;101964;-68
2022/05/01 08:44:53;;;;;;;16.33;14.63;;;;;;;10.17;100.00;96687.81;5074174;27;103034;-68
2022/05/01 08:47:24;;;;;;;13.47;11.53;;;;;;;10.15;100.00;96693.38;5071210;27;101792;-68
2022/05/01 08:49:57;;;;;;;11.03;9.90;;;;;;;10.01;100.00;96696.53;5071308;27;102570;-68
2022/05/01 08:52:29;;;;;;;11.43;10.23;;;;;;;10.00;100.00;96686.97;5052684;27;105985;-68
2022/05/01 08:54:59;;;;;;;12.40;10.23;;;;;;;9.86;100.00;96689.09;5035981;27;101819;-68
2022/05/01 08:57:28;;;;;;;11.07;9.60;;;;;;;9.87;100.00;96690.72;5052461;27;105803;-68
2022/05/01 08:59:56;;;;;;;11.53;10.33;;;;;;;10.01;100.00;96694.69;5051611;27;105320;-68
2022/05/01 09:02:24;;;;;;;11.37;10.17;;;;;;;10.16;100.00;96686.22;5051761;27;102010;-68
2022/05/01 09:04:52;;;;;;;11.63;10.53;;;;;;;10.13;100.00;96692.00;5073013;27;102978;-68
2022/05/01 09:07:19;;;;;;;12.87;11.60;;;;;;;10.16;100.00;96688.88;5051200;27;102064;-68
2022/05/01 09:09:49;;;;;;;12.63;11.33;;;;;;;10.17;100.00;96682.50;5069082;27;104511;-68
2022/05/01 09:15:04;;;;;;;15.17;13.57;;;;;;;10.37;100.00;96690.81;5052052;27;101894;-68
2022/05/01 09:17:31;;;;;;;15.47;13.87;;;;;;;10.24;100.00;96685.84;5070381;27;102472;-68
2022/05/01 09:20:06;;;;;;;15.77;14.10;;;;;;;10.36;100.00;96684.69;5067297;27;105891;-68
2022/05/01 09:22:48;;;;;;;15.63;13.83;;;;;;;10.46;100.00;96678.75;5051578;27;102312;-68
2022/05/01 09:25:17;;;;;;;14.87;13.40;;;;;;;10.42;100.00;96675.75;5052078;27;105234;-68
2022/05/01 09:27:46;;;;;;;14.23;12.73;;;;;;;10.48;100.00;96681.97;5054771;27;105758;-68
2022/05/01 09:30:16;;;;;;;12.47;11.27;;;;;;;10.41;100.00;96681.31;5051693;27;105209;-68
2022/05/01 09:32:44;;;;;;;12.90;11.57;;;;;;;10.49;100.00;96678.25;5050951;27;105717;-68
2022/05/01 09:35:17;;;;;;;11.80;10.70;;;;;;;10.52;100.00;96681.22;5068769;27;101984;-68
2022/05/01 09:37:45;;;;;;;11.43;10.33;;;;;;;10.46;100.00;96678.75;5051715;27;105254;-68
2022/05/01 09:40:14;;;;;;;10.73;9.73;;;;;;;10.34;100.00;96685.97;5068202;27;104687;-68
2022/05/01 09:42:41;;;;;;;14.00;12.60;;;;;;;10.13;100.00;96676.88;5052598;27;101987;-68
2022/05/01 09:45:13;;;;;;;14.57;12.80;;;;;;;9.97;100.00;96684.81;5051376;27;106289;-68
2022/05/01 09:47:41;;;;;;;15.20;13.23;;;;;;;10.03;100.00;96675.88;5050936;27;105927;-68
2022/05/01 09:50:10;;;;;;;13.93;12.53;;;;;;;9.87;100.00;96684.63;5073404;27;102016;-68
2022/05/01 09:52:58;;;;;;;15.83;14.23;;;;;;;10.02;100.00;96677.72;5050973;27;105476;-68
2022/05/01 09:55:27;;;;;;;13.10;11.80;;;;;;;9.87;100.00;96685.41;5051090;27;101911;-68
2022/05/01 09:58:09;;;;;;;13.13;11.73;;;;;;;9.86;100.00;96683.00;5069735;27;102709;-68
2022/05/01 10:00:46;;;;;;;12.90;11.63;;;;;;;9.90;100.00;96684.13;5050910;27;105430;-68
2022/05/01 10:03:25;;;;;;;13.63;12.30;;;;;;;9.96;100.00;96685.81;5051381;27;101911;-68
2022/05/01 10:05:56;;;;;;;13.57;12.27;;;;;;;9.97;100.00;96676.84;5051427;27;104941;-68
2022/05/01 10:08:24;;;;;;;14.60;13.17;;;;;;;9.97;100.00;96679.50;5050506;27;106730;-68
2022/05/01 10:10:56;;;;;;;14.00;12.50;;;;;;;9.98;100.00;96670.47;5051184;27;101901;-68
2022/05/01 10:13:26;;;;;;;14.30;12.80;;;;;;;10.02;100.00;96671.56;5054060;27;105142;-69
2022/05/01 10:15:56;;;;;;;15.00;13.50;;;;;;;10.10;100.00;96673.88;5050880;27;101993;-69
2022/05/01 10:18:26;;;;;;;14.57;13.13;;;;;;;10.23;100.00;96676.22;5050840;27;106175;-69
2022/05/01 10:20:53;;;;;;;14.13;12.63;;;;;;;10.38;100.00;96665.84;5049957;27;105841;-69
2022/05/01 10:23:20;;;;;;;14.87;12.67;;;;;;;10.35;100.00;96663.69;5069455;27;101829;-69
2022/05/01 10:25:51;;;;;;;14.93;13.43;;;;;;;10.39;100.00;96667.44;5050861;27;105525;-69
2022/05/01 10:28:31;;;;;;;13.20;11.90;;;;;;;10.39;100.00;96659.47;5050384;27;105014;-69
2022/05/01 10:34:21;;;;;;;14.60;13.10;;;;;;;10.71;100.00;96661.31;5069374;27;102537;-68
2022/05/01 10:36:59;;;;;;;14.63;13.13;;;;;;;10.74;100.00;96660.03;5054114;27;105388;-68
2022/05/01 10:39:34;;;;;;;14.67;13.17;;;;;;;10.70;100.00;96662.38;5050698;27;105525;-68
2022/05/01 10:42:02;;;;;;;15.90;14.30;;;;;;;10.69;100.00;96658.06;5068868;27;103075;-68
2022/05/01 10:44:31;;;;;;;15.40;13.93;;;;;;;10.72;100.00;96662.09;5050687;27;101883;-68
2022/05/01 10:47:12;;;;;;;16.83;14.93;;;;;;;10.80;100.00;96659.03;5050581;27;106476;-68
2022/05/01 10:49:42;;;;;;;17.60;15.80;;;;;;;10.83;100.00;96658.53;5050158;27;105544;-68
2022/05/01 10:52:20;;;;;;;16.47;14.77;;;;;;;10.82;100.00;96656.94;5050728;27;102310;-68
2022/05/01 10:54:52;;;;;;;15.97;14.23;;;;;;;10.84;100.00;96662.84;5050710;27;104132;-68
2022/05/01 10:57:19;;;;;;;18.47;15.03;;;;;;;10.79;100.00;96654.78;5050198;27;105406;-68
2022/05/01 11:00:06;;;;;;;17.93;16.00;;;;;;;10.77;100.00;96659.50;5053994;27;101892;-68
2022/05/01 11:02:40;;;;;;;17.83;16.03;;;;;;;10.56;100.00;96654.94;5066240;27;105481;-68
2022/05/01 11:05:09;;;;;;;17.20;15.43;;;;;;;10.67;100.00;96659.38;5069196;27;102097;-68
2022/05/01 11:07:39;;;;;;;19.23;17.17;;;;;;;10.59;100.00;96660.63;5054033;27;105678;-68
2022/05/01 11:10:11;;;;;;;18.67;16.67;;;;;;;10.50;100.00;96654.09;5053431;27;105632;-68
2022/05/01 11:12:39;;;;;;;18.17;16.27;;;;;;;10.58;100.00;96658.19;5054030;27;102036;-68
2022/05/01 11:15:08;;;;;;;18.27;16.37;;;;;;;10.52;100.00;96656.50;5053538;27;106106;-68
2022/05/01 11:17:54;;;;;;;18.23;15.97;;;;;;;10.48;100.00;96658.81;5053112;27;105581;-68
2022/05/01 11:20:43;;;;;;;17.73;15.83;;;;;;;10.55;100.00;96648.03;5056236;27;103383;-68
2022/05/01 11:23:33;;;;;;;20.33;17.30;;;;;;;10.67;100.00;96654.03;5053080;27;105368;-68
2022/05/01 11:26:09;;;;;;;18.17;16.27;;;;;;;10.65;100.00;96656.16;5053826;27;101875;-68
2022/05/01 11:28:52;;;;;;;19.27;15.47;;;;;;;10.60;100.00;96653.41;5053366;27;106308;-68
2022/05/01 11:31:49;;;;;;;17.87;15.97;;;;;;;10.69;100.00;96652.75;5053149;27;105917;-68
2022/05/01 11:34:34;;;;;;;17.30;15.53;;;;;;;10.71;100.00;96655.19;5072254;27;101849;-69
2022/05/01 11:37:06;;;;;;;18.30;16.13;;;;;;;10.71;100.00;96650.69;5072026;27;102778;-69
2022/05/01 11:40:11;;;;;;;17.67;15.77;;;;;;;10.75;100.00;96659.75;5053012;27;105759;-69
2022/05/01 11:42:38;;;;;;;19.77;16.30;;;;;;;10.81;100.00;96650.81;5053460;27;101873;-69
2022/05/01 11:45:08;;;;;;;16.87;15.07;;;;;;;10.86;100.00;96658.06;5056159;27;105506;-68
2022/05/01 11:47:36;;;;;;;18.03;16.13;;;;;;;10.97;100.00;96655.28;5053231;27;101926;-68
2022/05/01 11:50:06;;;;;;;17.53;15.63;;;;;;;11.08;100.00;96658.88;5036504;27;105277;-68
2022/05/01 11:52:37;;;;;;;19.23;17.23;;;;;;;11.16;100.00;96658.44;5052816;27;105678;-68
2022/05/01 11:55:08;;;;;;;19.63;16.13;;;;;;;11.21;100.00;96661.19;5053554;27;102371;-68